Ana Sayfa
METAR-TAF:

METAR-TAF

Havaalanları :

Rosh Pinna, İsrail

Enlem: 32-58-48N, Boylam: 035-34-12E, yükseklik: 281 m

Güncel hava durumu gözlemi

Rapor saat 09:50 UTC de 25 dakika önce yapıldı.
Rüzgar güneydoğudan 5 kt
Sıcaklık 34°C
Nem 44%
Basınç 1011 hPa
Görüş mesafesi 10 km veya daha fazla
1500 m altında bulut yok ve kümülonimbus yok

METAR: LLIB 260950Z 14005KT CAVOK 34/20 Q1011

Saat: 13:15 (10:15 UTC)

Tahmin

Rapor saat 05:05 UTC de 5 saat ve 10 dakika önce yapıldı.
Ayın 26'si saat 06 UTC'den ayın 27'si saat 06 UTC'ye kadar geçerli Tahmin
Rüzgar güney/güneydoğudan 6 kt
Görüş mesafesi 10 km veya daha fazla
1500 m altında bulut yok ve kümülonimbus yok
Dönüşüyor
ayın 26'si saat 10 UTC'den ayın 26'si saat 12 UTC'ye kadar
Rüzgar kuzey/kuzeybatıdan 10 kt
Dönüşüyor
ayın 26'si saat 21 UTC'den ayın 26'si saat 23 UTC'ye kadar
Rüzgar değişken yönden 4 kt

TAF: LLIB 260505Z 2606/2706 15006KT CAVOK BECMG 2610/2612 33010KT BECMG 2621/2623 VRB04KT TX35/2612Z TN19/2704Z

4.000'den fazla havaalanı için hava durumu gözlemleri ve tahminleri (METAR ve TAF raporları).

Kullanılabilir istasyonlar harita üzerinde sarı ve kırmızı noktalarla gösterilir.

İstasyonun adını görmek için fareyi noktanın üzerinde gezdirin.

Sonrasında hava gözlem ve tahminlerini görmek için tıklayın.

Haritayı değiştirmek için: yaklaştırmak için siyah artı işaretli yeşil düğmeye ve uzaklaştırmak için de eksi işaretli düğmeye hızla tıklayın; bitişik haritalar için yeşil okları kullanın.


METAR-TAF: